sensor_id;sensor_type;location;lat;lon;timestamp;P1;durP1;ratioP1;P2;durP2;ratioP2
82930;SDS011;72705;53.346;10.248;2024-01-07T00:04:31;6.20;;;2.70;;
82930;SDS011;72705;53.346;10.248;2024-01-07T00:07:03;4.45;;;2.97;;
82930;SDS011;72705;53.346;10.248;2024-01-07T00:09:55;7.47;;;3.38;;
82930;SDS011;72705;53.346;10.248;2024-01-07T00:18:28;6.00;;;3.40;;
82930;SDS011;72705;53.346;10.248;2024-01-07T00:21:10;6.68;;;3.42;;
82930;SDS011;72705;53.346;10.248;2024-01-07T00:29:38;4.60;;;3.00;;
82930;SDS011;72705;53.346;10.248;2024-01-07T00:32:29;3.92;;;2.85;;
82930;SDS011;72705;53.346;10.248;2024-01-07T00:35:35;4.75;;;3.30;;
82930;SDS011;72705;53.346;10.248;2024-01-07T00:38:06;7.20;;;3.35;;
82930;SDS011;72705;53.346;10.248;2024-01-07T00:40:46;7.88;;;3.60;;
82930;SDS011;72705;53.346;10.248;2024-01-07T00:43:40;5.10;;;3.15;;
82930;SDS011;72705;53.346;10.248;2024-01-07T00:46:29;5.80;;;2.97;;
82930;SDS011;72705;53.346;10.248;2024-01-07T00:48:57;4.65;;;3.28;;
82930;SDS011;72705;53.346;10.248;2024-01-07T00:51:24;4.72;;;2.58;;
82930;SDS011;72705;53.346;10.248;2024-01-07T00:54:08;5.70;;;3.05;;
82930;SDS011;72705;53.346;10.248;2024-01-07T00:56:55;4.00;;;2.50;;
82930;SDS011;72705;53.346;10.248;2024-01-07T00:59:27;3.83;;;2.55;;
82930;SDS011;72705;53.346;10.248;2024-01-07T01:02:02;5.55;;;3.83;;
82930;SDS011;72705;53.346;10.248;2024-01-07T01:05:22;5.20;;;2.92;;
82930;SDS011;72705;53.346;10.248;2024-01-07T01:07:52;8.35;;;3.50;;
82930;SDS011;72705;53.346;10.248;2024-01-07T01:13:44;5.60;;;3.33;;
82930;SDS011;72705;53.346;10.248;2024-01-07T01:16:36;5.35;;;3.17;;
82930;SDS011;72705;53.346;10.248;2024-01-07T01:19:12;5.22;;;2.97;;
82930;SDS011;72705;53.346;10.248;2024-01-07T01:21:44;9.65;;;3.28;;
82930;SDS011;72705;53.346;10.248;2024-01-07T01:24:21;5.00;;;3.17;;
82930;SDS011;72705;53.346;10.248;2024-01-07T01:26:56;4.15;;;2.83;;
82930;SDS011;72705;53.346;10.248;2024-01-07T01:33:03;5.85;;;3.40;;
82930;SDS011;72705;53.346;10.248;2024-01-07T01:36:14;4.65;;;2.65;;
82930;SDS011;72705;53.346;10.248;2024-01-07T01:39:15;6.60;;;3.47;;
82930;SDS011;72705;53.346;10.248;2024-01-07T01:41:46;5.50;;;3.30;;
82930;SDS011;72705;53.346;10.248;2024-01-07T01:44:30;4.82;;;3.28;;
82930;SDS011;72705;53.346;10.248;2024-01-07T01:47:21;7.15;;;3.38;;
82930;SDS011;72705;53.346;10.248;2024-01-07T01:49:50;5.75;;;3.17;;
82930;SDS011;72705;53.346;10.248;2024-01-07T01:55:29;5.80;;;3.30;;
82930;SDS011;72705;53.346;10.248;2024-01-07T01:57:59;4.57;;;3.00;;
82930;SDS011;72705;53.346;10.248;2024-01-07T02:00:34;5.85;;;3.38;;
82930;SDS011;72705;53.346;10.248;2024-01-07T02:03:14;4.90;;;3.28;;
82930;SDS011;72705;53.346;10.248;2024-01-07T02:05:45;5.38;;;3.20;;
82930;SDS011;72705;53.346;10.248;2024-01-07T02:08:13;6.88;;;3.38;;
82930;SDS011;72705;53.346;10.248;2024-01-07T02:10:47;5.00;;;3.38;;
82930;SDS011;72705;53.346;10.248;2024-01-07T02:13:14;4.75;;;2.40;;
82930;SDS011;72705;53.346;10.248;2024-01-07T02:15:43;3.55;;;2.42;;
82930;SDS011;72705;53.346;10.248;2024-01-07T02:18:21;5.20;;;2.80;;
82930;SDS011;72705;53.346;10.248;2024-01-07T02:20:57;6.47;;;3.00;;
82930;SDS011;72705;53.346;10.248;2024-01-07T02:23:41;4.28;;;2.58;;
82930;SDS011;72705;53.346;10.248;2024-01-07T02:26:09;5.88;;;2.92;;
82930;SDS011;72705;53.346;10.248;2024-01-07T02:28:43;4.03;;;2.67;;
82930;SDS011;72705;53.346;10.248;2024-01-07T02:31:12;5.63;;;2.90;;
82930;SDS011;72705;53.346;10.248;2024-01-07T02:33:48;4.07;;;3.00;;
82930;SDS011;72705;53.346;10.248;2024-01-07T02:36:17;4.22;;;2.90;;
82930;SDS011;72705;53.346;10.248;2024-01-07T02:38:46;5.47;;;2.75;;
82930;SDS011;72705;53.346;10.248;2024-01-07T02:41:19;4.95;;;3.15;;
82930;SDS011;72705;53.346;10.248;2024-01-07T02:43:53;4.00;;;2.53;;
82930;SDS011;72705;53.346;10.248;2024-01-07T02:46:22;5.88;;;2.70;;
82930;SDS011;72705;53.346;10.248;2024-01-07T02:48:49;4.40;;;2.30;;
82930;SDS011;72705;53.346;10.248;2024-01-07T02:51:20;5.80;;;2.80;;
82930;SDS011;72705;53.346;10.248;2024-01-07T02:53:48;4.32;;;2.58;;
82930;SDS011;72705;53.346;10.248;2024-01-07T02:56:24;3.33;;;2.60;;
82930;SDS011;72705;53.346;10.248;2024-01-07T02:59:10;4.65;;;2.45;;
82930;SDS011;72705;53.346;10.248;2024-01-07T03:01:44;4.22;;;2.50;;
82930;SDS011;72705;53.346;10.248;2024-01-07T03:04:10;3.75;;;2.58;;
82930;SDS011;72705;53.346;10.248;2024-01-07T03:06:38;3.53;;;2.50;;
82930;SDS011;72705;53.346;10.248;2024-01-07T03:09:07;3.95;;;2.50;;
82930;SDS011;72705;53.346;10.248;2024-01-07T03:11:47;4.93;;;2.63;;
82930;SDS011;72705;53.346;10.248;2024-01-07T03:14:30;4.13;;;2.30;;
82930;SDS011;72705;53.346;10.248;2024-01-07T03:17:01;5.35;;;2.70;;
82930;SDS011;72705;53.346;10.248;2024-01-07T03:19:53;5.30;;;2.35;;
82930;SDS011;72705;53.346;10.248;2024-01-07T03:22:37;3.25;;;2.33;;
82930;SDS011;72705;53.346;10.248;2024-01-07T03:25:05;4.75;;;2.75;;
82930;SDS011;72705;53.346;10.248;2024-01-07T03:27:34;3.88;;;2.75;;
82930;SDS011;72705;53.346;10.248;2024-01-07T03:30:00;5.45;;;3.22;;
82930;SDS011;72705;53.346;10.248;2024-01-07T03:32:33;5.47;;;3.15;;
82930;SDS011;72705;53.346;10.248;2024-01-07T03:35:21;5.22;;;2.60;;
82930;SDS011;72705;53.346;10.248;2024-01-07T03:38:05;4.03;;;2.28;;
82930;SDS011;72705;53.346;10.248;2024-01-07T03:40:44;5.68;;;3.22;;
82930;SDS011;72705;53.346;10.248;2024-01-07T03:43:21;3.90;;;2.45;;
82930;SDS011;72705;53.346;10.248;2024-01-07T03:46:00;4.05;;;2.38;;
82930;SDS011;72705;53.346;10.248;2024-01-07T03:48:32;8.90;;;2.38;;
82930;SDS011;72705;53.346;10.248;2024-01-07T03:51:00;4.28;;;2.88;;
82930;SDS011;72705;53.346;10.248;2024-01-07T03:53:27;4.03;;;2.30;;
82930;SDS011;72705;53.346;10.248;2024-01-07T03:56:02;3.42;;;2.25;;
82930;SDS011;72705;53.346;10.248;2024-01-07T03:58:28;3.53;;;2.70;;
82930;SDS011;72705;53.346;10.248;2024-01-07T04:01:07;4.10;;;2.65;;
82930;SDS011;72705;53.346;10.248;2024-01-07T04:04:01;3.25;;;2.33;;
82930;SDS011;72705;53.346;10.248;2024-01-07T04:06:28;4.10;;;2.83;;
82930;SDS011;72705;53.346;10.248;2024-01-07T04:08:56;3.58;;;2.28;;
82930;SDS011;72705;53.346;10.248;2024-01-07T04:11:22;4.75;;;2.85;;
82930;SDS011;72705;53.346;10.248;2024-01-07T04:13:51;4.63;;;3.03;;
82930;SDS011;72705;53.346;10.248;2024-01-07T04:16:17;4.10;;;2.35;;
82930;SDS011;72705;53.346;10.248;2024-01-07T04:18:44;4.63;;;2.33;;
82930;SDS011;72705;53.346;10.248;2024-01-07T04:21:10;3.95;;;2.53;;
82930;SDS011;72705;53.346;10.248;2024-01-07T04:23:36;4.25;;;2.42;;
82930;SDS011;72705;53.346;10.248;2024-01-07T04:26:04;3.80;;;2.33;;
82930;SDS011;72705;53.346;10.248;2024-01-07T04:28:40;5.00;;;2.88;;
82930;SDS011;72705;53.346;10.248;2024-01-07T04:33:45;5.88;;;2.40;;
82930;SDS011;72705;53.346;10.248;2024-01-07T04:36:14;4.70;;;2.53;;
82930;SDS011;72705;53.346;10.248;2024-01-07T04:38:56;4.38;;;2.72;;
82930;SDS011;72705;53.346;10.248;2024-01-07T04:41:29;5.20;;;2.53;;
82930;SDS011;72705;53.346;10.248;2024-01-07T04:44:16;3.60;;;2.50;;
82930;SDS011;72705;53.346;10.248;2024-01-07T04:46:45;5.93;;;2.40;;
82930;SDS011;72705;53.346;10.248;2024-01-07T04:49:17;3.38;;;2.42;;
82930;SDS011;72705;53.346;10.248;2024-01-07T04:51:49;5.32;;;2.67;;
82930;SDS011;72705;53.346;10.248;2024-01-07T04:54:21;4.05;;;2.72;;
82930;SDS011;72705;53.346;10.248;2024-01-07T04:56:50;4.25;;;3.13;;
82930;SDS011;72705;53.346;10.248;2024-01-07T04:59:22;4.70;;;2.83;;
82930;SDS011;72705;53.346;10.248;2024-01-07T05:04:16;5.97;;;2.50;;
82930;SDS011;72705;53.346;10.248;2024-01-07T05:06:44;4.65;;;2.85;;
82930;SDS011;72705;53.346;10.248;2024-01-07T05:09:13;3.45;;;2.47;;
82930;SDS011;72705;53.346;10.248;2024-01-07T05:11:46;6.05;;;2.55;;
82930;SDS011;72705;53.346;10.248;2024-01-07T05:14:11;6.07;;;2.78;;
82930;SDS011;72705;53.346;10.248;2024-01-07T05:16:37;3.95;;;2.63;;
82930;SDS011;72705;53.346;10.248;2024-01-07T05:19:05;5.43;;;3.33;;
82930;SDS011;72705;53.346;10.248;2024-01-07T05:21:30;6.05;;;2.80;;
82930;SDS011;72705;53.346;10.248;2024-01-07T05:23:56;5.43;;;2.83;;
82930;SDS011;72705;53.346;10.248;2024-01-07T05:26:24;4.18;;;2.30;;
82930;SDS011;72705;53.346;10.248;2024-01-07T05:28:50;6.68;;;3.25;;
82930;SDS011;72705;53.346;10.248;2024-01-07T05:31:18;5.03;;;2.78;;
82930;SDS011;72705;53.346;10.248;2024-01-07T05:33:44;6.45;;;3.10;;
82930;SDS011;72705;53.346;10.248;2024-01-07T05:36:18;4.55;;;2.95;;
82930;SDS011;72705;53.346;10.248;2024-01-07T05:38:54;6.35;;;2.65;;
82930;SDS011;72705;53.346;10.248;2024-01-07T05:41:23;7.50;;;3.05;;
82930;SDS011;72705;53.346;10.248;2024-01-07T05:43:55;4.47;;;3.03;;
82930;SDS011;72705;53.346;10.248;2024-01-07T05:46:27;5.13;;;2.75;;
82930;SDS011;72705;53.346;10.248;2024-01-07T05:48:59;5.07;;;3.10;;
82930;SDS011;72705;53.346;10.248;2024-01-07T05:51:34;3.75;;;2.63;;
82930;SDS011;72705;53.346;10.248;2024-01-07T05:54:07;4.28;;;3.00;;
82930;SDS011;72705;53.346;10.248;2024-01-07T05:56:34;7.15;;;3.08;;
82930;SDS011;72705;53.346;10.248;2024-01-07T05:59:06;5.90;;;2.95;;
82930;SDS011;72705;53.346;10.248;2024-01-07T06:01:32;4.57;;;3.05;;
82930;SDS011;72705;53.346;10.248;2024-01-07T06:04:01;5.00;;;3.05;;
82930;SDS011;72705;53.346;10.248;2024-01-07T06:06:27;4.28;;;2.40;;
82930;SDS011;72705;53.346;10.248;2024-01-07T06:08:55;8.77;;;2.90;;
82930;SDS011;72705;53.346;10.248;2024-01-07T06:11:24;7.20;;;3.97;;
82930;SDS011;72705;53.346;10.248;2024-01-07T06:13:49;11.90;;;7.20;;
82930;SDS011;72705;53.346;10.248;2024-01-07T06:16:15;2.92;;;1.98;;
82930;SDS011;72705;53.346;10.248;2024-01-07T06:18:41;5.85;;;3.22;;
82930;SDS011;72705;53.346;10.248;2024-01-07T06:21:10;5.20;;;2.53;;
82930;SDS011;72705;53.346;10.248;2024-01-07T06:23:35;5.32;;;2.53;;
82930;SDS011;72705;53.346;10.248;2024-01-07T06:26:05;7.93;;;2.97;;
82930;SDS011;72705;53.346;10.248;2024-01-07T06:28:41;3.15;;;2.25;;
82930;SDS011;72705;53.346;10.248;2024-01-07T06:31:13;8.73;;;3.20;;
82930;SDS011;72705;53.346;10.248;2024-01-07T06:33:53;7.40;;;3.45;;
82930;SDS011;72705;53.346;10.248;2024-01-07T06:36:21;3.40;;;2.25;;
82930;SDS011;72705;53.346;10.248;2024-01-07T06:38:56;4.55;;;2.47;;
82930;SDS011;72705;53.346;10.248;2024-01-07T06:41:32;5.80;;;2.67;;
82930;SDS011;72705;53.346;10.248;2024-01-07T06:43:59;6.70;;;2.97;;
82930;SDS011;72705;53.346;10.248;2024-01-07T06:46:28;4.85;;;2.58;;
82930;SDS011;72705;53.346;10.248;2024-01-07T06:49:02;5.20;;;2.40;;
82930;SDS011;72705;53.346;10.248;2024-01-07T06:51:33;6.63;;;3.10;;
82930;SDS011;72705;53.346;10.248;2024-01-07T06:53:59;4.13;;;2.80;;
82930;SDS011;72705;53.346;10.248;2024-01-07T06:56:34;5.25;;;2.70;;
82930;SDS011;72705;53.346;10.248;2024-01-07T06:59:08;5.18;;;2.65;;
82930;SDS011;72705;53.346;10.248;2024-01-07T07:01:33;4.18;;;2.80;;
82930;SDS011;72705;53.346;10.248;2024-01-07T07:04:09;7.05;;;3.38;;
82930;SDS011;72705;53.346;10.248;2024-01-07T07:06:37;5.25;;;2.92;;
82930;SDS011;72705;53.346;10.248;2024-01-07T07:09:03;4.90;;;3.00;;
82930;SDS011;72705;53.346;10.248;2024-01-07T07:11:32;4.95;;;3.00;;
82930;SDS011;72705;53.346;10.248;2024-01-07T07:14:03;6.07;;;3.35;;
82930;SDS011;72705;53.346;10.248;2024-01-07T07:16:44;4.47;;;2.83;;
82930;SDS011;72705;53.346;10.248;2024-01-07T07:19:09;5.07;;;3.20;;
82930;SDS011;72705;53.346;10.248;2024-01-07T07:21:40;5.80;;;2.65;;
82930;SDS011;72705;53.346;10.248;2024-01-07T07:24:10;8.98;;;3.75;;
82930;SDS011;72705;53.346;10.248;2024-01-07T07:26:39;7.90;;;3.17;;
82930;SDS011;72705;53.346;10.248;2024-01-07T07:29:10;6.82;;;3.03;;
82930;SDS011;72705;53.346;10.248;2024-01-07T07:31:36;6.03;;;3.20;;
82930;SDS011;72705;53.346;10.248;2024-01-07T07:36:30;7.30;;;3.20;;
82930;SDS011;72705;53.346;10.248;2024-01-07T07:38:56;4.28;;;3.03;;
82930;SDS011;72705;53.346;10.248;2024-01-07T07:41:27;6.30;;;3.40;;
82930;SDS011;72705;53.346;10.248;2024-01-07T07:43:53;5.45;;;3.22;;
82930;SDS011;72705;53.346;10.248;2024-01-07T07:46:19;5.88;;;2.92;;
82930;SDS011;72705;53.346;10.248;2024-01-07T07:48:47;8.32;;;2.92;;
82930;SDS011;72705;53.346;10.248;2024-01-07T07:51:16;7.15;;;2.75;;
82930;SDS011;72705;53.346;10.248;2024-01-07T07:53:45;8.40;;;3.40;;
82930;SDS011;72705;53.346;10.248;2024-01-07T07:56:13;7.30;;;3.10;;
82930;SDS011;72705;53.346;10.248;2024-01-07T07:58:39;5.40;;;2.72;;
82930;SDS011;72705;53.346;10.248;2024-01-07T08:01:05;46.45;;;16.20;;
82930;SDS011;72705;53.346;10.248;2024-01-07T08:03:31;31.05;;;13.15;;
82930;SDS011;72705;53.346;10.248;2024-01-07T08:05:57;14.70;;;7.47;;
82930;SDS011;72705;53.346;10.248;2024-01-07T08:08:24;8.40;;;4.13;;
82930;SDS011;72705;53.346;10.248;2024-01-07T08:10:52;6.60;;;4.43;;
82930;SDS011;72705;53.346;10.248;2024-01-07T08:13:21;5.68;;;3.45;;
82930;SDS011;72705;53.346;10.248;2024-01-07T08:15:50;5.13;;;2.75;;
82930;SDS011;72705;53.346;10.248;2024-01-07T08:18:18;14.18;;;9.73;;
82930;SDS011;72705;53.346;10.248;2024-01-07T08:20:44;8.38;;;4.97;;
82930;SDS011;72705;53.346;10.248;2024-01-07T08:23:10;16.92;;;6.35;;
82930;SDS011;72705;53.346;10.248;2024-01-07T08:25:36;32.67;;;12.73;;
82930;SDS011;72705;53.346;10.248;2024-01-07T08:28:03;14.65;;;7.63;;
82930;SDS011;72705;53.346;10.248;2024-01-07T08:30:29;7.45;;;4.43;;
82930;SDS011;72705;53.346;10.248;2024-01-07T08:32:55;10.10;;;5.50;;
82930;SDS011;72705;53.346;10.248;2024-01-07T08:35:21;9.82;;;4.38;;
82930;SDS011;72705;53.346;10.248;2024-01-07T08:37:47;21.38;;;8.05;;
82930;SDS011;72705;53.346;10.248;2024-01-07T08:40:14;20.63;;;8.45;;
82930;SDS011;72705;53.346;10.248;2024-01-07T08:42:43;7.43;;;4.22;;
82930;SDS011;72705;53.346;10.248;2024-01-07T08:45:14;5.07;;;3.35;;
82930;SDS011;72705;53.346;10.248;2024-01-07T08:47:44;8.85;;;4.90;;
82930;SDS011;72705;53.346;10.248;2024-01-07T08:50:13;7.82;;;4.45;;
82930;SDS011;72705;53.346;10.248;2024-01-07T08:53:12;7.10;;;3.28;;
82930;SDS011;72705;53.346;10.248;2024-01-07T08:55:40;3.90;;;2.50;;
82930;SDS011;72705;53.346;10.248;2024-01-07T08:58:08;5.13;;;2.63;;
82930;SDS011;72705;53.346;10.248;2024-01-07T09:00:39;5.55;;;2.72;;
82930;SDS011;72705;53.346;10.248;2024-01-07T09:03:19;5.80;;;3.63;;
82930;SDS011;72705;53.346;10.248;2024-01-07T09:08:51;4.97;;;2.90;;
82930;SDS011;72705;53.346;10.248;2024-01-07T09:11:22;9.02;;;3.03;;
82930;SDS011;72705;53.346;10.248;2024-01-07T09:13:53;4.75;;;3.03;;
82930;SDS011;72705;53.346;10.248;2024-01-07T09:16:53;8.27;;;3.75;;
82930;SDS011;72705;53.346;10.248;2024-01-07T09:19:18;5.50;;;3.58;;
82930;SDS011;72705;53.346;10.248;2024-01-07T09:21:44;6.68;;;3.38;;
82930;SDS011;72705;53.346;10.248;2024-01-07T09:24:10;18.02;;;4.20;;
82930;SDS011;72705;53.346;10.248;2024-01-07T09:26:36;4.25;;;2.65;;
82930;SDS011;72705;53.346;10.248;2024-01-07T09:29:02;5.50;;;3.42;;
82930;SDS011;72705;53.346;10.248;2024-01-07T09:31:27;5.30;;;3.10;;
82930;SDS011;72705;53.346;10.248;2024-01-07T09:33:53;4.50;;;3.03;;
82930;SDS011;72705;53.346;10.248;2024-01-07T09:36:19;6.57;;;3.90;;
82930;SDS011;72705;53.346;10.248;2024-01-07T09:38:44;9.80;;;5.60;;
82930;SDS011;72705;53.346;10.248;2024-01-07T09:41:11;7.67;;;3.83;;
82930;SDS011;72705;53.346;10.248;2024-01-07T09:43:37;6.88;;;3.90;;
82930;SDS011;72705;53.346;10.248;2024-01-07T09:46:03;10.00;;;4.15;;
82930;SDS011;72705;53.346;10.248;2024-01-07T09:48:29;6.25;;;3.63;;
82930;SDS011;72705;53.346;10.248;2024-01-07T09:50:55;7.70;;;3.58;;
82930;SDS011;72705;53.346;10.248;2024-01-07T09:53:25;10.35;;;4.05;;
82930;SDS011;72705;53.346;10.248;2024-01-07T09:56:06;6.38;;;4.05;;
82930;SDS011;72705;53.346;10.248;2024-01-07T09:58:34;6.47;;;4.50;;
82930;SDS011;72705;53.346;10.248;2024-01-07T10:01:00;7.95;;;3.75;;
82930;SDS011;72705;53.346;10.248;2024-01-07T10:03:26;8.00;;;3.85;;
82930;SDS011;72705;53.346;10.248;2024-01-07T10:05:51;8.93;;;4.82;;
82930;SDS011;72705;53.346;10.248;2024-01-07T10:08:17;9.88;;;4.72;;
82930;SDS011;72705;53.346;10.248;2024-01-07T10:10:42;7.63;;;4.47;;
82930;SDS011;72705;53.346;10.248;2024-01-07T10:13:09;10.85;;;4.72;;
82930;SDS011;72705;53.346;10.248;2024-01-07T10:15:34;9.55;;;4.72;;
82930;SDS011;72705;53.346;10.248;2024-01-07T10:18:03;6.75;;;4.30;;
82930;SDS011;72705;53.346;10.248;2024-01-07T10:20:33;33.63;;;11.05;;
82930;SDS011;72705;53.346;10.248;2024-01-07T10:23:00;33.22;;;13.15;;
82930;SDS011;72705;53.346;10.248;2024-01-07T10:25:32;62.03;;;23.27;;
82930;SDS011;72705;53.346;10.248;2024-01-07T10:28:01;54.22;;;18.70;;
82930;SDS011;72705;53.346;10.248;2024-01-07T10:30:27;29.25;;;11.85;;
82930;SDS011;72705;53.346;10.248;2024-01-07T10:33:00;37.92;;;15.45;;
82930;SDS011;72705;53.346;10.248;2024-01-07T10:35:32;15.98;;;7.32;;
82930;SDS011;72705;53.346;10.248;2024-01-07T10:37:59;8.30;;;5.00;;
82930;SDS011;72705;53.346;10.248;2024-01-07T10:40:26;8.52;;;5.53;;
82930;SDS011;72705;53.346;10.248;2024-01-07T10:42:52;12.90;;;5.95;;
82930;SDS011;72705;53.346;10.248;2024-01-07T10:45:19;8.27;;;4.97;;
82930;SDS011;72705;53.346;10.248;2024-01-07T10:47:46;8.00;;;4.47;;
82930;SDS011;72705;53.346;10.248;2024-01-07T10:50:15;7.53;;;4.22;;
82930;SDS011;72705;53.346;10.248;2024-01-07T10:52:42;14.77;;;6.18;;
82930;SDS011;72705;53.346;10.248;2024-01-07T10:55:08;31.02;;;13.13;;
82930;SDS011;72705;53.346;10.248;2024-01-07T10:57:45;27.38;;;11.88;;
82930;SDS011;72705;53.346;10.248;2024-01-07T11:00:16;21.23;;;9.82;;
82930;SDS011;72705;53.346;10.248;2024-01-07T11:08:54;9.25;;;4.18;;
82930;SDS011;72705;53.346;10.248;2024-01-07T11:11:27;10.55;;;5.25;;
82930;SDS011;72705;53.346;10.248;2024-01-07T11:17:39;10.98;;;5.53;;
82930;SDS011;72705;53.346;10.248;2024-01-07T11:20:17;8.48;;;4.85;;
82930;SDS011;72705;53.346;10.248;2024-01-07T11:25:31;9.68;;;5.18;;
82930;SDS011;72705;53.346;10.248;2024-01-07T11:27:57;11.38;;;5.20;;
82930;SDS011;72705;53.346;10.248;2024-01-07T11:30:23;11.07;;;5.63;;
82930;SDS011;72705;53.346;10.248;2024-01-07T11:32:56;8.07;;;4.70;;
82930;SDS011;72705;53.346;10.248;2024-01-07T11:38:31;7.43;;;3.70;;
82930;SDS011;72705;53.346;10.248;2024-01-07T11:40:57;4.50;;;2.92;;
82930;SDS011;72705;53.346;10.248;2024-01-07T11:43:25;6.97;;;3.65;;
82930;SDS011;72705;53.346;10.248;2024-01-07T11:45:50;4.68;;;3.17;;
82930;SDS011;72705;53.346;10.248;2024-01-07T11:48:16;4.68;;;3.13;;
82930;SDS011;72705;53.346;10.248;2024-01-07T11:50:45;6.38;;;3.58;;
82930;SDS011;72705;53.346;10.248;2024-01-07T11:53:11;5.07;;;2.40;;
82930;SDS011;72705;53.346;10.248;2024-01-07T11:55:38;8.68;;;3.13;;
82930;SDS011;72705;53.346;10.248;2024-01-07T11:58:03;4.63;;;2.65;;
82930;SDS011;72705;53.346;10.248;2024-01-07T12:00:32;11.43;;;5.20;;
82930;SDS011;72705;53.346;10.248;2024-01-07T12:02:59;13.45;;;5.68;;
82930;SDS011;72705;53.346;10.248;2024-01-07T12:05:26;4.00;;;3.00;;
82930;SDS011;72705;53.346;10.248;2024-01-07T12:07:52;4.03;;;2.88;;
82930;SDS011;72705;53.346;10.248;2024-01-07T12:10:18;3.90;;;2.75;;
82930;SDS011;72705;53.346;10.248;2024-01-07T12:12:44;5.35;;;3.38;;
82930;SDS011;72705;53.346;10.248;2024-01-07T12:15:10;6.43;;;2.85;;
82930;SDS011;72705;53.346;10.248;2024-01-07T12:17:40;3.22;;;2.08;;
82930;SDS011;72705;53.346;10.248;2024-01-07T12:25:02;4.45;;;2.40;;
82930;SDS011;72705;53.346;10.248;2024-01-07T12:27:30;18.67;;;7.05;;
82930;SDS011;72705;53.346;10.248;2024-01-07T12:30:00;19.27;;;8.73;;
82930;SDS011;72705;53.346;10.248;2024-01-07T12:32:26;182.07;;;68.28;;
82930;SDS011;72705;53.346;10.248;2024-01-07T12:34:58;201.55;;;73.40;;
82930;SDS011;72705;53.346;10.248;2024-01-07T12:37:26;98.75;;;38.88;;
82930;SDS011;72705;53.346;10.248;2024-01-07T12:39:53;145.13;;;55.40;;
82930;SDS011;72705;53.346;10.248;2024-01-07T12:42:18;104.07;;;41.30;;
82930;SDS011;72705;53.346;10.248;2024-01-07T12:44:45;52.53;;;22.63;;
82930;SDS011;72705;53.346;10.248;2024-01-07T12:47:10;99.88;;;42.50;;
82930;SDS011;72705;53.346;10.248;2024-01-07T12:49:37;114.25;;;48.95;;
82930;SDS011;72705;53.346;10.248;2024-01-07T12:52:02;76.43;;;34.28;;
82930;SDS011;72705;53.346;10.248;2024-01-07T12:54:28;125.82;;;55.05;;
82930;SDS011;72705;53.346;10.248;2024-01-07T12:56:53;36.67;;;22.17;;
82930;SDS011;72705;53.346;10.248;2024-01-07T12:59:19;12.43;;;8.30;;
82930;SDS011;72705;53.346;10.248;2024-01-07T13:01:44;57.97;;;32.22;;
82930;SDS011;72705;53.346;10.248;2024-01-07T13:04:09;37.22;;;22.75;;
82930;SDS011;72705;53.346;10.248;2024-01-07T13:06:35;52.28;;;26.20;;
82930;SDS011;72705;53.346;10.248;2024-01-07T13:09:01;50.72;;;20.55;;
82930;SDS011;72705;53.346;10.248;2024-01-07T13:11:29;72.03;;;30.67;;
82930;SDS011;72705;53.346;10.248;2024-01-07T13:13:54;80.60;;;35.15;;
82930;SDS011;72705;53.346;10.248;2024-01-07T13:16:23;59.95;;;28.23;;
82930;SDS011;72705;53.346;10.248;2024-01-07T13:18:50;70.32;;;29.30;;
82930;SDS011;72705;53.346;10.248;2024-01-07T13:21:16;18.92;;;9.70;;
82930;SDS011;72705;53.346;10.248;2024-01-07T13:23:42;20.80;;;10.75;;
82930;SDS011;72705;53.346;10.248;2024-01-07T13:26:09;37.55;;;20.38;;
82930;SDS011;72705;53.346;10.248;2024-01-07T13:28:35;31.75;;;19.10;;
82930;SDS011;72705;53.346;10.248;2024-01-07T13:31:00;13.93;;;8.10;;
82930;SDS011;72705;53.346;10.248;2024-01-07T13:33:26;55.20;;;26.80;;
82930;SDS011;72705;53.346;10.248;2024-01-07T13:35:52;20.55;;;11.13;;
82930;SDS011;72705;53.346;10.248;2024-01-07T13:38:18;33.00;;;16.88;;
82930;SDS011;72705;53.346;10.248;2024-01-07T13:40:43;21.83;;;13.43;;
82930;SDS011;72705;53.346;10.248;2024-01-07T13:43:10;23.92;;;14.18;;
82930;SDS011;72705;53.346;10.248;2024-01-07T13:45:36;6.97;;;4.15;;
82930;SDS011;72705;53.346;10.248;2024-01-07T13:48:01;56.17;;;32.28;;
82930;SDS011;72705;53.346;10.248;2024-01-07T13:50:28;90.68;;;38.05;;
82930;SDS011;72705;53.346;10.248;2024-01-07T13:52:54;60.45;;;28.98;;
82930;SDS011;72705;53.346;10.248;2024-01-07T13:55:19;51.05;;;28.63;;
82930;SDS011;72705;53.346;10.248;2024-01-07T13:57:46;44.67;;;19.63;;
82930;SDS011;72705;53.346;10.248;2024-01-07T14:00:11;14.60;;;7.47;;
82930;SDS011;72705;53.346;10.248;2024-01-07T14:02:43;19.58;;;11.70;;
82930;SDS011;72705;53.346;10.248;2024-01-07T14:05:10;18.48;;;12.30;;
82930;SDS011;72705;53.346;10.248;2024-01-07T14:07:37;24.10;;;14.50;;
82930;SDS011;72705;53.346;10.248;2024-01-07T14:10:04;263.60;;;93.35;;
82930;SDS011;72705;53.346;10.248;2024-01-07T14:12:31;59.10;;;28.05;;
82930;SDS011;72705;53.346;10.248;2024-01-07T14:14:58;69.90;;;32.58;;
82930;SDS011;72705;53.346;10.248;2024-01-07T14:17:26;51.05;;;27.75;;
82930;SDS011;72705;53.346;10.248;2024-01-07T14:19:52;29.17;;;21.40;;
82930;SDS011;72705;53.346;10.248;2024-01-07T14:22:19;8.10;;;3.88;;
82930;SDS011;72705;53.346;10.248;2024-01-07T14:24:45;7.35;;;4.10;;
82930;SDS011;72705;53.346;10.248;2024-01-07T14:27:11;7.53;;;3.83;;
82930;SDS011;72705;53.346;10.248;2024-01-07T14:29:37;5.68;;;3.83;;
82930;SDS011;72705;53.346;10.248;2024-01-07T14:32:03;8.15;;;3.83;;
82930;SDS011;72705;53.346;10.248;2024-01-07T14:34:30;6.13;;;3.30;;
82930;SDS011;72705;53.346;10.248;2024-01-07T14:36:55;3.47;;;2.23;;
82930;SDS011;72705;53.346;10.248;2024-01-07T14:39:20;7.03;;;3.97;;
82930;SDS011;72705;53.346;10.248;2024-01-07T14:41:46;8.75;;;4.40;;
82930;SDS011;72705;53.346;10.248;2024-01-07T14:44:12;11.10;;;3.85;;
82930;SDS011;72705;53.346;10.248;2024-01-07T14:46:37;11.57;;;5.10;;
82930;SDS011;72705;53.346;10.248;2024-01-07T14:49:06;11.05;;;5.28;;
82930;SDS011;72705;53.346;10.248;2024-01-07T14:51:32;8.43;;;4.18;;
82930;SDS011;72705;53.346;10.248;2024-01-07T14:53:57;6.90;;;4.40;;
82930;SDS011;72705;53.346;10.248;2024-01-07T14:56:23;7.30;;;4.05;;
82930;SDS011;72705;53.346;10.248;2024-01-07T14:58:48;5.60;;;3.40;;
82930;SDS011;72705;53.346;10.248;2024-01-07T15:01:14;7.50;;;3.13;;
82930;SDS011;72705;53.346;10.248;2024-01-07T15:03:40;7.15;;;3.05;;
82930;SDS011;72705;53.346;10.248;2024-01-07T15:06:06;5.88;;;3.60;;
82930;SDS011;72705;53.346;10.248;2024-01-07T15:08:33;5.97;;;2.88;;
82930;SDS011;72705;53.346;10.248;2024-01-07T15:10:58;4.53;;;2.63;;
82930;SDS011;72705;53.346;10.248;2024-01-07T15:13:24;9.35;;;5.05;;
82930;SDS011;72705;53.346;10.248;2024-01-07T15:15:49;6.57;;;4.05;;
82930;SDS011;72705;53.346;10.248;2024-01-07T15:18:15;3.93;;;3.10;;
82930;SDS011;72705;53.346;10.248;2024-01-07T15:20:40;6.22;;;3.60;;
82930;SDS011;72705;53.346;10.248;2024-01-07T15:23:07;6.97;;;4.85;;
82930;SDS011;72705;53.346;10.248;2024-01-07T15:25:42;7.70;;;4.20;;
82930;SDS011;72705;53.346;10.248;2024-01-07T15:28:08;6.13;;;4.25;;
82930;SDS011;72705;53.346;10.248;2024-01-07T15:30:33;8.38;;;4.05;;
82930;SDS011;72705;53.346;10.248;2024-01-07T15:32:59;6.40;;;3.85;;
82930;SDS011;72705;53.346;10.248;2024-01-07T15:35:25;5.43;;;3.00;;
82930;SDS011;72705;53.346;10.248;2024-01-07T15:37:50;7.07;;;3.33;;
82930;SDS011;72705;53.346;10.248;2024-01-07T15:40:15;5.97;;;2.95;;
82930;SDS011;72705;53.346;10.248;2024-01-07T15:42:41;22.70;;;9.20;;